createdAt,value
2023-05-31T06:16:51.878Z,57.83
2023-05-31T06:17:58.323Z,49.96
2023-05-31T06:18:29.292Z,46.19
2023-05-31T06:18:59.404Z,43.60
2023-05-31T06:19:29.421Z,43.96
2023-05-31T06:19:59.794Z,45.19
2023-05-31T06:20:29.515Z,45.75
2023-05-31T06:20:59.996Z,45.28
2023-05-31T06:21:29.601Z,46.43
2023-05-31T06:21:59.617Z,45.72
2023-05-31T06:22:29.622Z,45.68
2023-05-31T06:22:59.836Z,43.68
2023-05-31T06:23:29.652Z,45.32
2023-05-31T06:23:59.648Z,45.15
2023-05-31T06:24:29.647Z,48.71
2023-05-31T06:24:59.641Z,51.80
2023-05-31T06:25:29.706Z,53.80
2023-05-31T06:25:59.958Z,50.34
2023-05-31T06:26:29.802Z,48.56
2023-05-31T06:26:59.931Z,47.43
2023-05-31T06:27:29.939Z,49.75
2023-05-31T06:28:07.056Z,51.59
2023-05-31T06:28:38.029Z,43.73
2023-05-31T06:29:07.488Z,45.54
2023-05-31T06:29:37.453Z,49.14
2023-05-31T06:30:07.627Z,49.46
2023-05-31T06:30:37.647Z,50.04
2023-05-31T06:31:07.644Z,48.76
2023-05-31T06:31:37.846Z,49.68
2023-05-31T06:32:07.751Z,50.47
2023-05-31T06:32:37.821Z,50.23
2023-05-31T06:33:08.318Z,50.13
2023-05-31T06:33:37.939Z,50.53
2023-05-31T06:34:07.956Z,51.02
2023-05-31T06:34:37.823Z,49.07
2023-05-31T06:35:08.087Z,50.27
2023-05-31T06:35:38.051Z,47.37
2023-05-31T06:36:08.114Z,49.92
2023-05-31T06:36:38.203Z,49.29
2023-05-31T06:37:08.273Z,49.36
2023-05-31T06:37:38.567Z,49.75
2023-05-31T06:38:08.452Z,48.54
2023-05-31T06:38:38.516Z,52.58
2023-05-31T06:39:08.598Z,53.83
2023-05-31T06:39:38.581Z,51.95
2023-05-31T06:40:08.669Z,50.52
2023-05-31T06:40:38.890Z,51.71
2023-05-31T06:41:08.798Z,59.12
2023-05-31T06:41:38.858Z,60.12
2023-05-31T06:42:08.923Z,58.28
2023-05-31T06:42:38.931Z,56.31
2023-05-31T06:43:08.953Z,54.23
2023-05-31T06:43:39.094Z,55.15
2023-05-31T06:44:15.508Z,46.10
2023-05-31T06:44:55.372Z,45.30
2023-05-31T06:45:16.557Z,45.40
2023-05-31T06:45:46.852Z,45.85
2023-05-31T06:46:16.749Z,45.56
2023-05-31T06:46:53.143Z,43.71
2023-05-31T06:47:24.325Z,49.46
2023-05-31T06:47:54.319Z,47.22
2023-05-31T06:48:24.494Z,44.49
2023-05-31T06:49:11.758Z,43.07
2023-05-31T06:49:31.963Z,43.81
2023-05-31T06:50:01.971Z,43.87
2023-05-31T06:50:32.312Z,46.24
2023-05-31T06:51:02.236Z,47.42
2023-05-31T06:51:31.929Z,46.22
2023-05-31T06:52:02.069Z,45.63
2023-05-31T06:52:32.034Z,44.45
2023-05-31T06:53:02.183Z,44.48
2023-05-31T06:53:32.316Z,43.74
2023-05-31T06:54:02.194Z,45.37
2023-05-31T06:54:32.235Z,43.77
2023-05-31T06:55:02.349Z,43.93
2023-05-31T06:55:32.387Z,44.12
2023-05-31T06:56:02.364Z,45.38
2023-05-31T06:56:33.098Z,44.11
2023-05-31T06:57:02.527Z,42.13
2023-05-31T06:57:32.654Z,44.15
2023-05-31T06:58:02.654Z,46.93
2023-05-31T06:58:32.681Z,45.77
2023-05-31T06:59:02.688Z,47.60
2023-05-31T06:59:33.274Z,46.80
2023-05-31T07:00:09.649Z,46.36
2023-05-31T07:00:40.720Z,44.72
2023-05-31T07:01:10.949Z,46.88
2023-05-31T07:01:47.557Z,50.01
2023-05-31T07:02:18.428Z,46.24
2023-05-31T07:02:48.512Z,42.32
2023-05-31T07:03:18.628Z,46.03
2023-05-31T07:03:48.681Z,46.84
2023-05-31T07:04:18.685Z,49.29
2023-05-31T07:04:48.940Z,49.89
2023-05-31T07:05:18.839Z,49.16
2023-05-31T07:05:48.872Z,46.71
2023-05-31T07:06:21.471Z,47.81
2023-05-31T07:06:48.925Z,48.57
2023-05-31T07:07:18.915Z,44.23
2023-05-31T07:07:49.054Z,46.45
2023-05-31T07:08:18.956Z,45.61
2023-05-31T07:08:49.022Z,48.43
2023-05-31T07:09:19.000Z,48.92
2023-05-31T07:09:49.092Z,49.66
2023-05-31T07:10:19.237Z,49.10
2023-05-31T07:10:49.399Z,47.89
2023-05-31T07:11:19.265Z,45.02
2023-05-31T07:11:49.335Z,44.68
2023-05-31T07:12:19.449Z,46.50
2023-05-31T07:12:49.425Z,48.60
2023-05-31T07:13:19.626Z,47.62
2023-05-31T07:13:49.821Z,46.26
2023-05-31T07:14:19.635Z,44.45
2023-05-31T07:14:49.614Z,47.28
2023-05-31T07:15:19.636Z,41.85
2023-05-31T07:15:49.686Z,45.68
2023-05-31T07:16:19.749Z,44.76
2023-05-31T07:16:49.883Z,43.40
2023-05-31T07:17:19.794Z,44.34
2023-05-31T07:17:49.836Z,44.47
2023-05-31T07:18:19.852Z,42.28
2023-05-31T07:18:49.911Z,44.85
2023-05-31T07:19:19.866Z,47.30
2023-05-31T07:19:50.100Z,46.98
2023-05-31T07:20:20.205Z,45.70
2023-05-31T07:20:50.259Z,44.81
2023-05-31T07:21:20.106Z,44.17
2023-05-31T07:21:50.195Z,43.92
2023-05-31T07:22:20.279Z,45.32
2023-05-31T07:22:50.533Z,44.66
2023-05-31T07:23:20.391Z,44.63
2023-05-31T07:23:50.480Z,46.76
2023-05-31T07:24:20.598Z,45.64
2023-05-31T07:24:51.041Z,45.05
2023-05-31T07:25:20.611Z,46.94
2023-05-31T07:25:50.744Z,46.34
2023-05-31T07:26:20.658Z,47.53
2023-05-31T07:26:50.617Z,46.05
2023-05-31T07:27:20.693Z,48.15
2023-05-31T07:27:50.797Z,46.44
2023-05-31T07:28:20.835Z,47.73
2023-05-31T07:28:50.939Z,49.13
2023-05-31T07:29:20.840Z,45.15
2023-05-31T07:29:50.853Z,44.77
2023-05-31T07:30:20.860Z,43.92
2023-05-31T07:30:50.878Z,44.13
2023-05-31T07:31:21.929Z,45.17
2023-05-31T07:31:51.209Z,46.10
2023-05-31T07:32:21.293Z,44.10
2023-05-31T07:32:51.288Z,45.14
2023-05-31T07:33:28.431Z,49.68
2023-05-31T07:33:51.268Z,47.55
2023-05-31T07:34:21.442Z,45.11
2023-05-31T07:35:02.414Z,42.58
2023-05-31T07:35:21.401Z,42.79
2023-05-31T07:35:58.183Z,45.24
2023-05-31T07:36:21.711Z,47.09
2023-05-31T07:36:51.589Z,45.22
2023-05-31T07:37:21.671Z,44.72
2023-05-31T07:37:51.794Z,43.02
2023-05-31T07:38:21.798Z,44.14
2023-05-31T07:38:51.837Z,44.45
2023-05-31T07:39:21.968Z,46.30
2023-05-31T07:39:51.865Z,45.75
2023-05-31T07:40:21.824Z,47.35
2023-05-31T07:40:51.930Z,46.60
2023-05-31T07:41:21.968Z,41.66
2023-05-31T07:41:51.982Z,44.59
2023-05-31T07:42:22.200Z,44.48
2023-05-31T07:42:52.106Z,51.81
2023-05-31T07:43:22.606Z,47.81
2023-05-31T07:43:52.370Z,46.00
2023-05-31T07:44:22.153Z,44.56
2023-05-31T07:44:52.218Z,47.87
2023-05-31T07:45:22.512Z,44.51
2023-05-31T07:45:52.373Z,44.56
2023-05-31T07:46:22.451Z,45.92
2023-05-31T07:46:52.767Z,45.97
2023-05-31T07:47:22.596Z,44.35
2023-05-31T07:47:52.616Z,46.57
2023-05-31T07:48:22.763Z,45.95
2023-05-31T07:48:52.627Z,47.52
2023-05-31T07:49:22.699Z,46.72
2023-05-31T07:49:52.782Z,47.05
2023-05-31T07:50:22.909Z,45.19
2023-05-31T07:50:52.906Z,47.64
2023-05-31T07:51:23.174Z,44.27
2023-05-31T07:51:53.019Z,44.38
2023-05-31T07:52:23.401Z,44.28
2023-05-31T07:52:53.154Z,47.75
2023-05-31T07:53:23.262Z,46.64
2023-05-31T07:53:53.330Z,45.64
2023-05-31T07:54:23.633Z,46.21
2023-05-31T07:54:53.490Z,45.90
2023-05-31T07:55:23.556Z,43.89
2023-05-31T07:55:53.657Z,45.10
2023-05-31T07:56:24.006Z,48.08
2023-05-31T07:56:53.774Z,51.30
2023-05-31T07:57:24.022Z,45.96
2023-05-31T07:57:53.913Z,44.72
2023-05-31T07:58:23.964Z,44.35
2023-05-31T07:58:54.039Z,43.69
2023-05-31T07:59:23.991Z,42.22
2023-05-31T07:59:54.229Z,43.64
2023-05-31T08:00:24.344Z,46.80
2023-05-31T08:00:54.163Z,56.16
2023-05-31T08:01:24.345Z,51.73
2023-05-31T08:01:54.312Z,44.33
2023-05-31T08:02:24.402Z,45.21
2023-05-31T08:02:54.340Z,50.46
2023-05-31T08:03:24.635Z,50.05
2023-05-31T08:03:54.460Z,52.23
2023-05-31T08:04:24.507Z,55.29
2023-05-31T08:04:54.472Z,49.67
2023-05-31T08:05:24.940Z,52.38
2023-05-31T08:05:56.273Z,54.59
2023-05-31T08:06:24.826Z,48.42
2023-05-31T08:06:55.076Z,51.43
2023-05-31T08:07:24.790Z,56.26
2023-05-31T08:07:54.786Z,56.21
2023-05-31T08:08:24.838Z,57.37
2023-05-31T08:08:54.830Z,54.94
2023-05-31T08:09:24.908Z,48.97
2023-05-31T08:09:55.015Z,52.58
2023-05-31T08:10:25.005Z,49.71
2023-05-31T08:10:55.097Z,48.57
2023-05-31T08:11:25.103Z,48.36
2023-05-31T08:11:55.231Z,45.06
2023-05-31T08:12:27.599Z,48.76
2023-05-31T08:12:55.294Z,48.84
2023-05-31T08:13:25.544Z,47.44
2023-05-31T08:13:55.304Z,49.11
2023-05-31T08:14:25.509Z,44.34
2023-05-31T08:14:55.483Z,47.29
2023-05-31T08:15:25.556Z,42.81
2023-05-31T08:15:55.616Z,42.06
2023-05-31T08:16:25.749Z,45.97
2023-05-31T08:16:55.952Z,41.73
2023-05-31T08:17:26.107Z,46.25
2023-05-31T08:17:55.957Z,41.75
2023-05-31T08:18:25.957Z,40.27
2023-05-31T08:18:56.020Z,46.35
2023-05-31T08:19:26.126Z,45.51
2023-05-31T08:19:56.167Z,53.36
2023-05-31T08:20:26.312Z,51.69
2023-05-31T08:20:56.271Z,46.89
2023-05-31T08:21:26.279Z,44.57
2023-05-31T08:21:56.296Z,43.83
2023-05-31T08:22:26.280Z,42.79
2023-05-31T08:22:56.343Z,44.51
2023-05-31T08:23:26.595Z,42.69
2023-05-31T08:23:56.486Z,44.09
2023-05-31T08:24:26.591Z,42.37
2023-05-31T08:24:56.612Z,43.73
2023-05-31T08:25:26.665Z,44.43
2023-05-31T08:25:56.850Z,48.16
2023-05-31T08:26:26.881Z,48.68
2023-05-31T08:26:56.778Z,48.61
2023-05-31T08:27:26.852Z,45.70
2023-05-31T08:27:56.908Z,47.01
2023-05-31T08:28:27.065Z,46.23
2023-05-31T08:28:57.065Z,46.06
2023-05-31T08:29:27.330Z,45.57
2023-05-31T08:29:57.177Z,46.63
2023-05-31T08:30:27.276Z,43.97
2023-05-31T08:30:57.317Z,40.38
2023-05-31T08:31:27.375Z,44.19
2023-05-31T08:31:57.409Z,43.49
2023-05-31T08:32:27.555Z,41.91
2023-05-31T08:32:57.508Z,42.37
2023-05-31T08:33:27.453Z,43.20
2023-05-31T08:33:57.572Z,41.50
2023-05-31T08:34:27.576Z,42.43
2023-05-31T08:34:57.588Z,44.23
2023-05-31T08:35:27.728Z,44.03
2023-05-31T08:35:57.604Z,41.68
2023-05-31T08:36:27.813Z,43.19
2023-05-31T08:36:57.719Z,43.64
2023-05-31T08:37:27.781Z,43.33
2023-05-31T08:37:57.864Z,42.17
2023-05-31T08:38:28.159Z,39.60
2023-05-31T08:38:58.028Z,40.20
2023-05-31T08:39:28.137Z,42.80
2023-05-31T08:39:58.141Z,40.35
2023-05-31T08:40:28.193Z,39.67
2023-05-31T08:40:58.353Z,43.71
2023-05-31T08:41:28.425Z,43.17
2023-05-31T08:41:58.282Z,42.66
2023-05-31T08:42:28.364Z,43.24
2023-05-31T08:42:58.436Z,46.92
2023-05-31T08:43:28.592Z,46.13
2023-05-31T08:44:00.839Z,45.47
2023-05-31T08:44:28.822Z,44.72
2023-05-31T08:44:58.683Z,43.55
2023-05-31T08:45:28.985Z,44.97
2023-05-31T08:45:58.859Z,43.18
2023-05-31T08:46:28.993Z,43.89
2023-05-31T08:46:58.992Z,44.05
2023-05-31T08:47:29.301Z,43.97
2023-05-31T08:47:59.305Z,44.75
2023-05-31T08:48:29.254Z,44.92
2023-05-31T08:48:59.333Z,42.69
2023-05-31T08:49:29.391Z,45.83
2023-05-31T08:49:59.470Z,46.44
2023-05-31T08:50:29.733Z,46.64
2023-05-31T08:50:59.770Z,44.13
2023-05-31T08:51:29.785Z,44.55
2023-05-31T08:51:59.679Z,45.71
2023-05-31T08:52:29.690Z,47.44
2023-05-31T08:52:59.634Z,47.27
2023-05-31T08:53:29.910Z,43.95
2023-05-31T08:53:59.794Z,44.01
2023-05-31T08:54:29.921Z,44.00
2023-05-31T08:54:59.873Z,42.89
2023-05-31T08:55:29.984Z,43.65
2023-05-31T08:56:00.006Z,46.56
2023-05-31T08:56:30.182Z,45.94
2023-05-31T08:57:00.051Z,44.03
2023-05-31T08:57:30.142Z,45.01
2023-05-31T08:58:00.252Z,45.23
2023-05-31T08:58:30.253Z,44.07
2023-05-31T08:59:00.202Z,42.32
2023-05-31T08:59:30.429Z,45.36
2023-05-31T09:00:00.335Z,45.65
2023-05-31T09:00:30.401Z,46.16
2023-05-31T09:01:00.619Z,45.91
2023-05-31T09:01:30.508Z,45.59
2023-05-31T09:02:00.531Z,48.61
2023-05-31T09:02:31.650Z,48.06
2023-05-31T09:03:00.694Z,47.06
2023-05-31T09:03:30.620Z,47.69
2023-05-31T09:04:00.691Z,46.88
2023-05-31T09:04:30.776Z,48.00
2023-05-31T09:05:00.884Z,45.34
2023-05-31T09:05:31.094Z,43.97
2023-05-31T09:06:01.147Z,45.53
2023-05-31T09:06:30.920Z,45.47
2023-05-31T09:07:00.987Z,44.77
2023-05-31T09:07:30.980Z,44.97
2023-05-31T09:08:00.995Z,43.24
2023-05-31T09:08:31.154Z,46.47
2023-05-31T09:09:01.271Z,46.72
2023-05-31T09:09:31.078Z,45.18
2023-05-31T09:10:01.082Z,45.85
2023-05-31T09:10:31.346Z,43.80
2023-05-31T09:11:01.414Z,44.96
2023-05-31T09:11:31.226Z,44.95
2023-05-31T09:12:01.330Z,47.23
2023-05-31T09:12:31.345Z,46.99
2023-05-31T09:13:01.464Z,47.94
2023-05-31T09:13:31.637Z,46.56
2023-05-31T09:14:01.505Z,43.07
2023-05-31T09:14:31.666Z,45.35
2023-05-31T09:15:01.721Z,44.40
2023-05-31T09:15:31.742Z,46.45
2023-05-31T09:16:01.803Z,46.71
2023-05-31T09:16:32.009Z,44.83
2023-05-31T09:17:01.956Z,46.33
2023-05-31T09:17:31.951Z,39.73
2023-05-31T09:18:01.980Z,40.40
2023-05-31T09:18:32.043Z,39.53
2023-05-31T09:19:02.066Z,42.45
2023-05-31T09:19:32.202Z,42.15
2023-05-31T09:20:02.114Z,46.41
2023-05-31T09:20:32.159Z,45.67
2023-05-31T09:21:02.377Z,42.58
2023-05-31T09:21:32.194Z,43.83
2023-05-31T09:22:02.278Z,41.98
2023-05-31T09:22:32.508Z,40.24
2023-05-31T09:23:02.414Z,41.93
2023-05-31T09:23:32.434Z,41.35
2023-05-31T09:24:02.448Z,40.42
2023-05-31T09:24:32.433Z,40.49
2023-05-31T09:25:02.427Z,42.69
2023-05-31T09:25:32.701Z,43.52
2023-05-31T09:26:02.592Z,45.12
2023-05-31T09:26:32.633Z,43.84
2023-05-31T09:27:02.696Z,44.35
2023-05-31T09:27:32.683Z,41.35
2023-05-31T09:28:02.747Z,44.80
2023-05-31T09:28:33.005Z,42.87
2023-05-31T09:29:02.866Z,44.18
2023-05-31T09:29:32.912Z,39.90
2023-05-31T09:30:02.980Z,43.67
2023-05-31T09:30:33.058Z,42.15
2023-05-31T09:31:03.120Z,43.70
2023-05-31T09:31:33.396Z,43.63
2023-05-31T09:32:03.350Z,43.32
2023-05-31T09:32:33.349Z,42.55
2023-05-31T09:33:03.370Z,43.93
2023-05-31T09:33:33.418Z,43.35
2023-05-31T09:34:03.398Z,42.70
2023-05-31T09:34:33.677Z,43.86
2023-05-31T09:35:03.554Z,40.35
2023-05-31T09:35:33.695Z,39.77
2023-05-31T09:36:03.700Z,43.84
2023-05-31T09:36:33.800Z,40.77
2023-05-31T09:37:03.786Z,43.45
2023-05-31T09:37:34.048Z,42.75
2023-05-31T09:38:03.905Z,43.42
2023-05-31T09:38:34.011Z,40.90
2023-05-31T09:39:04.106Z,41.72
2023-05-31T09:39:34.206Z,41.21
2023-05-31T09:40:04.175Z,42.09
2023-05-31T09:40:34.349Z,44.81
2023-05-31T09:41:04.359Z,43.13
2023-05-31T09:41:34.357Z,42.71
2023-05-31T09:42:04.311Z,41.48
2023-05-31T09:42:34.456Z,39.07
2023-05-31T09:43:04.532Z,41.85
2023-05-31T09:43:34.739Z,42.10
2023-05-31T09:44:04.591Z,41.25
2023-05-31T09:44:34.730Z,40.75
2023-05-31T09:45:04.689Z,46.97
2023-05-31T09:45:34.757Z,45.51
2023-05-31T09:46:04.900Z,46.66
2023-05-31T09:46:35.238Z,48.51
2023-05-31T09:47:05.210Z,48.50
2023-05-31T09:47:35.005Z,47.61
2023-05-31T09:48:05.019Z,46.31
2023-05-31T09:48:35.064Z,45.91
2023-05-31T09:49:05.021Z,48.85
2023-05-31T09:49:35.293Z,69.96
2023-05-31T09:50:05.164Z,69.55
2023-05-31T09:50:35.249Z,62.14
2023-05-31T09:51:05.311Z,63.30
2023-05-31T09:51:35.592Z,65.09
2023-05-31T09:52:05.497Z,70.01
2023-05-31T09:52:35.743Z,68.15
2023-05-31T09:53:05.536Z,64.03
2023-05-31T09:53:35.553Z,58.02
2023-05-31T09:54:05.563Z,48.83
2023-05-31T09:54:35.576Z,48.21
2023-05-31T09:55:05.623Z,54.80
2023-05-31T09:55:35.773Z,49.85
2023-05-31T09:56:05.646Z,53.53
2023-05-31T09:56:35.786Z,53.96
2023-05-31T09:57:05.805Z,53.80
2023-05-31T09:57:35.774Z,64.95
2023-05-31T09:58:05.873Z,52.90
2023-05-31T09:58:36.114Z,43.94
2023-05-31T09:59:05.976Z,54.92
2023-05-31T09:59:36.068Z,46.23
2023-05-31T10:00:06.128Z,41.11
2023-05-31T10:00:36.201Z,42.04
2023-05-31T10:01:06.345Z,42.55
2023-05-31T10:01:36.594Z,46.07
2023-05-31T10:02:06.504Z,44.32
2023-05-31T10:02:36.635Z,43.98
2023-05-31T10:03:06.824Z,42.71
2023-05-31T10:03:36.693Z,44.47
2023-05-31T10:04:06.736Z,48.45
2023-05-31T10:04:36.854Z,52.81
2023-05-31T10:05:06.787Z,44.15
2023-05-31T10:05:36.775Z,43.43
2023-05-31T10:06:06.805Z,46.74
2023-05-31T10:06:36.812Z,46.98
2023-05-31T10:07:06.821Z,44.89
2023-05-31T10:07:37.434Z,43.61
2023-05-31T10:08:06.842Z,41.54
2023-05-31T10:08:37.151Z,51.62
2023-05-31T10:09:06.924Z,49.60
2023-05-31T10:09:37.034Z,45.17
2023-05-31T10:10:07.295Z,46.77
2023-05-31T10:10:37.156Z,59.29
2023-05-31T10:11:07.230Z,48.26
2023-05-31T10:11:37.329Z,48.87
2023-05-31T10:12:07.409Z,53.98
2023-05-31T10:12:37.732Z,53.07
2023-05-31T10:13:07.647Z,45.29
2023-05-31T10:13:37.760Z,43.56
2023-05-31T10:14:07.770Z,46.10
2023-05-31T10:14:37.576Z,49.71
2023-05-31T10:15:07.649Z,50.04
2023-05-31T10:15:37.670Z,53.17
2023-05-31T10:16:08.093Z,48.11
2023-05-31T10:16:37.820Z,51.96
2023-05-31T10:17:07.872Z,51.41
2023-05-31T10:17:37.916Z,50.81
2023-05-31T10:18:07.949Z,45.31
2023-05-31T10:18:37.905Z,45.28
2023-05-31T10:19:08.162Z,45.93
2023-05-31T10:19:38.252Z,45.19
2023-05-31T10:20:08.195Z,44.85
2023-05-31T10:20:38.285Z,45.51
2023-05-31T10:21:08.342Z,46.04
2023-05-31T10:21:38.368Z,47.38
2023-05-31T10:22:08.567Z,45.96
2023-05-31T10:22:38.856Z,52.10
2023-05-31T10:23:08.448Z,55.54
2023-05-31T10:23:38.701Z,45.77
2023-05-31T10:24:08.504Z,46.02
2023-05-31T10:24:38.585Z,46.98
2023-05-31T10:25:08.820Z,44.96
2023-05-31T10:25:38.606Z,47.34
2023-05-31T10:26:08.618Z,44.62
2023-05-31T10:26:38.570Z,44.17
2023-05-31T10:27:08.667Z,42.21
2023-05-31T10:27:38.689Z,44.97
2023-05-31T10:28:08.821Z,39.47
2023-05-31T10:28:38.729Z,41.49
2023-05-31T10:29:08.776Z,44.32
2023-05-31T10:29:38.823Z,42.17
2023-05-31T10:30:08.818Z,46.12
2023-05-31T10:30:38.828Z,45.23
2023-05-31T10:31:08.983Z,44.36
2023-05-31T10:31:39.000Z,43.25
2023-05-31T10:32:08.924Z,43.64
2023-05-31T10:32:39.270Z,47.18
2023-05-31T10:33:09.005Z,49.42
2023-05-31T10:33:39.006Z,50.85
2023-05-31T10:34:09.283Z,49.91
2023-05-31T10:34:39.148Z,46.74
2023-05-31T10:35:09.230Z,44.65
2023-05-31T10:35:39.323Z,45.89
2023-05-31T10:36:09.394Z,42.33
2023-05-31T10:36:39.535Z,43.88
2023-05-31T10:37:09.649Z,43.41
2023-05-31T10:37:39.575Z,45.03
2023-05-31T10:38:09.601Z,46.63
2023-05-31T10:38:39.551Z,45.16
2023-05-31T10:39:09.717Z,44.44
2023-05-31T10:39:39.732Z,40.88
2023-05-31T10:40:09.916Z,42.34
2023-05-31T10:40:39.804Z,42.73
2023-05-31T10:41:09.812Z,40.85
2023-05-31T10:41:39.844Z,42.99
2023-05-31T10:42:09.886Z,44.12
2023-05-31T10:42:39.898Z,43.45
2023-05-31T10:43:10.058Z,43.67
2023-05-31T10:43:39.989Z,43.37
2023-05-31T10:44:10.001Z,45.67
2023-05-31T10:44:40.114Z,43.28
2023-05-31T10:45:10.221Z,43.05
2023-05-31T10:45:40.222Z,44.77
2023-05-31T10:46:10.393Z,45.28
2023-05-31T10:46:40.347Z,46.25
2023-05-31T10:47:10.582Z,45.20
2023-05-31T10:47:40.285Z,43.15
2023-05-31T10:48:10.293Z,44.32
2023-05-31T10:48:40.374Z,45.34
2023-05-31T10:49:10.587Z,45.88
2023-05-31T10:49:40.491Z,47.32
2023-05-31T10:50:10.518Z,46.22
2023-05-31T10:50:40.533Z,42.95
2023-05-31T10:51:10.521Z,45.26
2023-05-31T10:51:40.680Z,43.02
2023-05-31T10:52:10.956Z,42.67
2023-05-31T10:52:40.694Z,46.58
2023-05-31T10:53:10.775Z,45.06
2023-05-31T10:53:40.853Z,43.92
2023-05-31T10:54:10.929Z,42.86
2023-05-31T10:54:41.004Z,42.96
2023-05-31T10:55:11.227Z,43.71
2023-05-31T10:55:41.141Z,45.68
2023-05-31T10:56:11.171Z,43.17
2023-05-31T10:56:41.171Z,42.86
2023-05-31T10:57:11.168Z,44.72
2023-05-31T10:57:41.162Z,49.28
2023-05-31T10:58:11.385Z,46.24
2023-05-31T10:58:41.308Z,44.83
2023-05-31T10:59:11.375Z,41.77
2023-05-31T10:59:41.343Z,42.98
2023-05-31T11:00:11.471Z,44.60
2023-05-31T11:00:41.475Z,45.40
2023-05-31T11:01:11.770Z,43.98
2023-05-31T11:01:41.547Z,46.55
2023-05-31T11:02:11.550Z,50.58
2023-05-31T11:02:41.737Z,47.73
2023-05-31T11:03:11.716Z,44.33
2023-05-31T11:03:41.786Z,43.52
2023-05-31T11:04:12.030Z,42.66
2023-05-31T11:04:41.884Z,42.50
2023-05-31T11:05:11.868Z,40.66
2023-05-31T11:05:41.952Z,41.38
2023-05-31T11:06:12.067Z,41.46
2023-05-31T11:06:42.117Z,39.66
2023-05-31T11:07:12.296Z,41.43
2023-05-31T11:07:42.124Z,40.74
2023-05-31T11:08:12.227Z,39.88
2023-05-31T11:08:42.273Z,43.16
2023-05-31T11:09:12.374Z,43.32
2023-05-31T11:09:42.572Z,38.69
2023-05-31T11:10:12.473Z,39.87
2023-05-31T11:10:42.450Z,39.71
2023-05-31T11:11:12.558Z,38.06
2023-05-31T11:11:42.552Z,40.07
2023-05-31T11:12:12.646Z,37.95
2023-05-31T11:12:42.924Z,40.21
2023-05-31T11:13:12.770Z,43.35
2023-05-31T11:13:42.853Z,42.12
2023-05-31T11:14:12.973Z,42.65
2023-05-31T11:14:42.967Z,42.19
2023-05-31T11:15:13.105Z,44.27
2023-05-31T11:15:43.340Z,42.15
2023-05-31T11:16:13.226Z,42.54
2023-05-31T11:16:43.240Z,43.64
2023-05-31T11:17:13.281Z,42.24
2023-05-31T11:17:43.359Z,41.86
2023-05-31T11:18:13.303Z,44.05
2023-05-31T11:18:43.413Z,43.40
2023-05-31T11:19:13.350Z,41.39
2023-05-31T11:19:43.350Z,42.14
2023-05-31T11:20:13.420Z,42.40
2023-05-31T11:20:43.368Z,38.62
2023-05-31T11:21:13.664Z,38.13
2023-05-31T11:21:43.529Z,38.58
2023-05-31T11:22:13.522Z,44.64
2023-05-31T11:22:43.585Z,43.28
2023-05-31T11:23:13.659Z,42.00
2023-05-31T11:23:43.730Z,42.03
2023-05-31T11:24:13.826Z,41.01
2023-05-31T11:24:44.032Z,42.01
2023-05-31T11:25:14.283Z,40.82
2023-05-31T11:25:44.311Z,38.92
2023-05-31T11:26:14.058Z,36.26
2023-05-31T11:26:44.179Z,39.94
2023-05-31T11:27:14.195Z,43.51
2023-05-31T11:27:44.345Z,40.38
2023-05-31T11:28:14.230Z,41.75
2023-05-31T11:28:44.307Z,40.64
2023-05-31T11:29:14.431Z,39.43
2023-05-31T11:29:44.414Z,43.23
2023-05-31T11:30:14.587Z,41.63
2023-05-31T11:30:44.777Z,48.26
2023-05-31T11:31:14.657Z,56.43
2023-05-31T11:31:44.851Z,46.81
2023-05-31T11:32:15.005Z,44.52
2023-05-31T11:32:45.025Z,46.67
2023-05-31T11:33:14.924Z,44.60
2023-05-31T11:33:57.654Z,45.78
2023-05-31T11:34:15.040Z,44.96
2023-05-31T11:34:45.066Z,47.42
2023-05-31T11:35:15.023Z,41.75
2023-05-31T11:35:45.150Z,38.71
2023-05-31T11:36:15.272Z,42.09
2023-05-31T11:36:45.163Z,44.34
2023-05-31T11:37:15.676Z,46.22
2023-05-31T11:37:45.286Z,46.44
2023-05-31T11:38:15.303Z,44.04
2023-05-31T11:38:45.349Z,45.34
2023-05-31T11:39:15.514Z,45.38
2023-05-31T11:39:45.378Z,44.17
2023-05-31T11:40:15.577Z,44.28
2023-05-31T11:40:45.548Z,49.32
2023-05-31T11:41:15.620Z,45.40
2023-05-31T11:41:45.708Z,46.23
2023-05-31T11:42:15.962Z,44.71
2023-05-31T11:42:45.830Z,47.40
2023-05-31T11:43:15.999Z,46.64
2023-05-31T11:43:45.966Z,40.76
2023-05-31T11:44:16.051Z,40.54
2023-05-31T11:44:46.147Z,53.67
2023-05-31T11:45:16.694Z,49.32
2023-05-31T11:45:46.268Z,38.89
2023-05-31T11:46:16.338Z,37.06
2023-05-31T11:46:46.431Z,38.76
2023-05-31T11:47:16.360Z,40.97
2023-05-31T11:47:46.377Z,37.91
2023-05-31T11:48:16.510Z,43.61
2023-05-31T11:48:46.430Z,44.46
2023-05-31T11:49:16.472Z,41.21
2023-05-31T11:49:46.860Z,41.85
2023-05-31T11:50:16.510Z,41.12
2023-05-31T11:50:46.614Z,44.04
2023-05-31T11:51:16.795Z,38.74
2023-05-31T11:51:46.671Z,37.84
2023-05-31T11:52:16.758Z,39.13
2023-05-31T11:52:46.850Z,38.82
2023-05-31T11:53:16.915Z,37.74
2023-05-31T11:53:46.945Z,37.79
2023-05-31T11:54:17.224Z,38.56
2023-05-31T11:54:47.113Z,40.16
2023-05-31T11:55:17.157Z,37.64
2023-05-31T11:55:47.250Z,38.37
2023-05-31T11:56:17.274Z,36.49
2023-05-31T11:56:47.301Z,43.70
2023-05-31T11:57:17.462Z,42.55
2023-05-31T11:57:47.335Z,39.60
2023-05-31T11:58:17.419Z,38.14
2023-05-31T11:58:47.546Z,42.02
2023-05-31T11:59:17.514Z,42.05
2023-05-31T11:59:47.569Z,39.12
2023-05-31T12:00:17.662Z,39.04
2023-05-31T12:00:47.567Z,40.13
2023-05-31T12:01:17.557Z,41.06
2023-05-31T12:01:47.990Z,37.84
2023-05-31T12:02:17.555Z,39.03
2023-05-31T12:02:47.622Z,41.45
2023-05-31T12:03:18.149Z,47.38
2023-05-31T12:03:47.723Z,54.32
2023-05-31T12:04:17.673Z,49.61
2023-05-31T12:04:47.770Z,44.28
2023-05-31T12:05:17.729Z,46.10
2023-05-31T12:05:47.711Z,47.01
2023-05-31T12:06:17.940Z,48.53
2023-05-31T12:06:47.898Z,46.20
2023-05-31T12:07:17.946Z,39.40
2023-05-31T12:07:47.961Z,41.44
2023-05-31T12:08:17.962Z,41.12
2023-05-31T12:08:47.798Z,40.48
2023-05-31T12:09:18.192Z,40.62
2023-05-31T12:09:47.949Z,40.41
2023-05-31T12:10:18.259Z,39.54
2023-05-31T12:10:48.253Z,40.13
2023-05-31T12:11:18.208Z,42.54
2023-05-31T12:11:48.348Z,42.47
2023-05-31T12:12:18.525Z,41.14
2023-05-31T12:12:48.422Z,39.85
2023-05-31T12:13:18.435Z,39.94
2023-05-31T12:13:48.451Z,38.29
2023-05-31T12:14:18.520Z,41.82
2023-05-31T12:14:48.545Z,41.58
2023-05-31T12:15:18.738Z,43.02
2023-05-31T12:15:48.625Z,44.37
2023-05-31T12:16:18.624Z,40.62
2023-05-31T12:16:48.663Z,41.62
2023-05-31T12:17:18.660Z,40.95
2023-05-31T12:17:48.852Z,40.76
2023-05-31T12:18:18.998Z,40.10
2023-05-31T12:18:48.891Z,38.60
2023-05-31T12:19:18.912Z,40.91
2023-05-31T12:19:48.910Z,38.97
